createdAt,value
2022-08-04T00:03:11.274Z,8.15
2022-08-04T00:08:27.229Z,8.82
2022-08-04T00:13:32.254Z,9.05
2022-08-04T00:18:39.894Z,8.68
2022-08-04T00:24:11.036Z,10.65
2022-08-04T00:29:09.234Z,10.13
2022-08-04T00:34:13.477Z,10.30
2022-08-04T00:39:18.155Z,9.63
2022-08-04T00:44:32.993Z,9.90
2022-08-04T00:50:03.694Z,10.35
2022-08-04T00:55:33.346Z,9.88
2022-08-04T01:00:46.414Z,10.38
2022-08-04T01:05:57.934Z,9.40
2022-08-04T01:11:13.879Z,8.90
2022-08-04T01:16:18.193Z,10.02
2022-08-04T01:21:53.721Z,10.02
2022-08-04T01:27:04.107Z,9.77
2022-08-04T01:32:19.396Z,9.70
2022-08-04T01:37:35.075Z,10.48
2022-08-04T01:42:39.158Z,10.52
2022-08-04T01:47:49.154Z,9.38
2022-08-04T01:52:54.954Z,9.18
2022-08-04T01:58:00.394Z,9.57
2022-08-04T02:03:04.599Z,10.38
2022-08-04T02:08:18.777Z,10.88
2022-08-04T02:13:27.074Z,10.02
2022-08-04T02:18:33.790Z,9.25
2022-08-04T02:23:38.134Z,8.90
2022-08-04T02:28:48.414Z,9.10
2022-08-04T02:34:01.567Z,10.13
2022-08-04T02:39:06.639Z,9.60
2022-08-04T02:44:10.545Z,8.52
2022-08-04T02:49:16.454Z,9.90
2022-08-04T02:54:31.675Z,10.05
2022-08-04T02:59:49.919Z,10.68
2022-08-04T03:05:00.814Z,10.05
2022-08-04T03:10:22.876Z,9.68
2022-08-04T03:15:54.813Z,10.20
2022-08-04T03:21:22.643Z,10.25
2022-08-04T03:27:00.375Z,9.45
2022-08-04T03:32:47.473Z,10.57
2022-08-04T03:38:17.834Z,9.27
2022-08-04T03:43:57.888Z,9.02
2022-08-04T03:49:28.341Z,11.07
2022-08-04T03:55:16.313Z,10.88
2022-08-04T04:00:21.513Z,10.55
2022-08-04T04:05:59.974Z,10.75
2022-08-04T04:11:54.228Z,11.82
2022-08-04T04:17:10.065Z,10.60
2022-08-04T04:22:30.065Z,11.23
2022-08-04T04:27:43.713Z,11.07
2022-08-04T04:33:15.206Z,10.27
2022-08-04T04:38:45.453Z,10.55
2022-08-04T04:44:11.754Z,9.40
2022-08-04T04:49:29.175Z,10.17
2022-08-04T04:54:37.836Z,9.32
2022-08-04T04:59:47.734Z,9.18
2022-08-04T05:05:22.513Z,8.25
2022-08-04T05:10:46.717Z,7.35
2022-08-04T05:15:53.824Z,6.82
2022-08-04T05:21:00.877Z,6.78
2022-08-04T05:26:10.505Z,9.65
2022-08-04T05:31:18.941Z,5.80
2022-08-04T05:36:40.557Z,5.25
2022-08-04T05:41:55.012Z,5.15
2022-08-04T05:46:59.237Z,5.53
2022-08-04T05:52:03.816Z,5.07
2022-08-04T05:57:09.966Z,4.80
2022-08-04T06:02:14.207Z,4.32
2022-08-04T06:07:17.378Z,4.28
2022-08-04T06:12:23.897Z,4.38
2022-08-04T06:18:42.208Z,3.90
2022-08-04T06:22:58.107Z,4.07
2022-08-04T06:28:06.953Z,4.33
2022-08-04T06:33:10.980Z,3.42
2022-08-04T06:38:14.004Z,3.63
2022-08-04T06:43:20.026Z,4.13
2022-08-04T06:48:22.757Z,3.60
2022-08-04T06:53:35.950Z,3.30
2022-08-04T06:58:41.087Z,4.18
2022-08-04T07:03:44.468Z,3.10
2022-08-04T07:08:51.974Z,3.13
2022-08-04T07:13:57.650Z,2.50
2022-08-04T07:19:10.095Z,2.40
2022-08-04T07:24:16.204Z,2.42
2022-08-04T07:29:20.214Z,2.30
2022-08-04T07:34:24.214Z,2.58
2022-08-04T07:39:29.752Z,2.22
2022-08-04T07:44:35.465Z,2.28
2022-08-04T07:49:55.975Z,2.45
2022-08-04T07:55:01.387Z,2.85
2022-08-04T08:00:07.507Z,2.72
2022-08-04T08:05:12.894Z,2.45
2022-08-04T08:10:15.873Z,2.70
2022-08-04T08:15:20.847Z,2.13
2022-08-04T08:20:29.825Z,2.60
2022-08-04T08:25:33.789Z,2.50
2022-08-04T08:30:37.984Z,2.08
2022-08-04T08:35:54.848Z,2.33
2022-08-04T08:41:15.594Z,2.30
2022-08-04T08:46:49.716Z,2.13
2022-08-04T08:52:06.438Z,1.90
2022-08-04T08:57:22.913Z,2.40
2022-08-04T09:03:05.454Z,2.17
2022-08-04T09:08:23.260Z,2.47
2022-08-04T09:13:34.333Z,2.20
2022-08-04T09:18:42.622Z,2.08
2022-08-04T09:23:56.512Z,2.35
2022-08-04T09:29:07.754Z,2.73
2022-08-04T09:34:15.959Z,2.58
2022-08-04T09:39:29.501Z,2.85
2022-08-04T09:44:53.125Z,2.67
2022-08-04T09:50:07.889Z,3.00
2022-08-04T09:55:19.129Z,2.78
2022-08-04T10:00:40.832Z,2.90
2022-08-04T10:05:58.009Z,2.97
2022-08-04T10:11:09.711Z,2.75
2022-08-04T10:16:28.800Z,2.42
2022-08-04T10:21:59.052Z,3.05
2022-08-04T10:27:10.020Z,2.42
2022-08-04T10:32:17.430Z,2.25
2022-08-04T10:37:54.660Z,1.98
2022-08-04T10:43:00.423Z,3.10
2022-08-04T10:48:10.750Z,2.10
2022-08-04T10:53:20.750Z,1.95
2022-08-04T10:58:47.687Z,1.85
2022-08-04T11:03:56.529Z,1.83
2022-08-04T11:09:01.541Z,2.15
2022-08-04T11:14:09.070Z,1.80
2022-08-04T11:19:44.765Z,1.67
2022-08-04T11:24:54.652Z,2.25
2022-08-04T11:30:05.311Z,1.88
2022-08-04T11:35:13.869Z,1.70
2022-08-04T11:40:24.288Z,1.77
2022-08-04T11:45:34.423Z,2.03
2022-08-04T11:50:40.323Z,1.70
2022-08-04T11:56:09.216Z,1.70
2022-08-04T12:01:12.190Z,2.72
2022-08-04T12:06:21.101Z,2.00
2022-08-04T12:11:38.083Z,2.47
2022-08-04T12:16:51.269Z,2.65
2022-08-04T12:21:57.450Z,2.13
2022-08-04T12:27:05.752Z,2.08
2022-08-04T12:32:22.845Z,1.80
2022-08-04T12:37:35.009Z,1.98
2022-08-04T12:42:56.047Z,1.50
2022-08-04T12:48:06.489Z,1.15
2022-08-04T12:53:31.522Z,1.40
2022-08-04T12:58:43.507Z,1.30
2022-08-04T13:03:52.970Z,1.50
2022-08-04T13:09:02.402Z,1.40
2022-08-04T13:14:26.053Z,1.27
2022-08-04T13:19:41.592Z,1.00
2022-08-04T13:24:56.569Z,0.80
2022-08-04T13:30:10.161Z,0.60
2022-08-04T13:35:15.820Z,0.60
2022-08-04T13:40:23.810Z,0.77
2022-08-04T13:45:35.014Z,0.85
2022-08-04T13:50:45.369Z,0.77
2022-08-04T13:55:48.809Z,1.00
2022-08-04T14:01:07.943Z,0.88
2022-08-04T14:06:25.013Z,0.98
2022-08-04T14:12:09.022Z,1.10
2022-08-04T14:17:02.224Z,0.95
2022-08-04T14:22:06.451Z,2.25
2022-08-04T14:27:09.089Z,1.88
2022-08-04T14:32:14.467Z,1.10
2022-08-04T14:37:20.013Z,1.40
2022-08-04T14:42:40.891Z,1.20
2022-08-04T14:47:52.283Z,0.70
2022-08-04T14:53:03.703Z,1.08
2022-08-04T14:58:35.426Z,1.38
2022-08-04T15:03:31.291Z,0.80
2022-08-04T15:08:35.430Z,0.70
2022-08-04T15:13:37.978Z,0.77
2022-08-04T15:18:41.491Z,0.80
2022-08-04T15:23:46.320Z,0.68
2022-08-04T15:28:54.921Z,0.80
2022-08-04T15:33:59.238Z,1.00
2022-08-04T15:39:12.935Z,1.23
2022-08-04T15:44:50.469Z,2.28
2022-08-04T15:50:08.892Z,0.88
2022-08-04T15:55:36.988Z,0.82
2022-08-04T16:01:16.916Z,0.80
2022-08-04T16:06:45.953Z,1.40
2022-08-04T16:11:50.230Z,2.63
2022-08-04T16:16:52.938Z,4.28
2022-08-04T16:21:57.312Z,1.95
2022-08-04T16:27:02.736Z,1.73
2022-08-04T16:32:13.517Z,1.63
2022-08-04T16:37:17.029Z,1.60
2022-08-04T16:42:36.566Z,2.17
2022-08-04T16:48:01.275Z,2.45
2022-08-04T16:53:39.971Z,5.32
2022-08-04T16:58:36.933Z,3.30
2022-08-04T17:03:40.553Z,2.20
2022-08-04T17:08:43.753Z,3.15
2022-08-04T17:14:04.010Z,2.47
2022-08-04T17:19:24.392Z,1.80
2022-08-04T17:24:29.076Z,1.75
2022-08-04T17:29:44.799Z,2.10
2022-08-04T17:34:49.456Z,2.50
2022-08-04T17:39:52.232Z,2.15
2022-08-04T17:45:39.587Z,2.30
2022-08-04T17:50:31.825Z,2.28
2022-08-04T17:55:41.684Z,2.42
2022-08-04T18:00:46.133Z,6.32
2022-08-04T18:06:03.600Z,5.30
2022-08-04T18:11:06.739Z,3.28
2022-08-04T18:16:22.879Z,1.80
2022-08-04T18:21:25.893Z,2.22
2022-08-04T18:26:31.054Z,2.33
2022-08-04T18:31:35.974Z,2.03
2022-08-04T18:36:40.124Z,2.00
2022-08-04T18:42:03.977Z,1.77
2022-08-04T18:47:22.311Z,1.40
2022-08-04T18:52:45.318Z,1.25
2022-08-04T18:58:11.897Z,1.10
2022-08-04T19:03:40.392Z,1.50
2022-08-04T19:08:50.755Z,1.33
2022-08-04T19:13:57.857Z,1.20
2022-08-04T19:19:06.334Z,1.23
2022-08-04T19:24:27.625Z,1.30
2022-08-04T19:29:37.280Z,7.97
2022-08-04T19:34:42.462Z,1.48
2022-08-04T19:39:49.591Z,1.30
2022-08-04T19:44:55.092Z,1.38
2022-08-04T19:50:04.507Z,1.25
2022-08-04T19:55:12.933Z,1.40
2022-08-04T20:00:16.208Z,1.48
2022-08-04T20:05:20.178Z,1.63
2022-08-04T20:10:47.076Z,1.55
2022-08-04T20:15:57.765Z,1.75
2022-08-04T20:21:02.592Z,1.65
2022-08-04T20:26:05.326Z,1.67
2022-08-04T20:31:08.213Z,1.50
2022-08-04T20:36:12.352Z,1.98
2022-08-04T20:41:15.253Z,1.95
2022-08-04T20:46:28.973Z,1.57
2022-08-04T20:51:40.033Z,1.70
2022-08-04T20:56:50.696Z,1.70
2022-08-04T21:01:54.066Z,1.77
2022-08-04T21:06:59.027Z,1.88
2022-08-04T21:12:01.818Z,2.03
2022-08-04T21:17:07.308Z,1.85
2022-08-04T21:22:12.009Z,2.13
2022-08-04T21:27:14.463Z,1.85
2022-08-04T21:32:18.159Z,2.00
2022-08-04T21:37:23.730Z,1.75
2022-08-04T21:42:49.957Z,1.92
2022-08-04T21:47:56.032Z,1.85
2022-08-04T21:52:59.949Z,2.08
2022-08-04T21:58:02.548Z,2.80
2022-08-04T22:03:05.461Z,2.30
2022-08-04T22:08:23.439Z,1.85
2022-08-04T22:13:52.681Z,2.00
2022-08-04T22:18:48.934Z,1.95
2022-08-04T22:23:58.244Z,1.77
2022-08-04T22:29:06.256Z,2.20
2022-08-04T22:34:08.917Z,2.08
2022-08-04T22:39:13.057Z,1.95
2022-08-04T22:44:16.055Z,1.95
2022-08-04T22:49:18.863Z,1.95
2022-08-04T22:54:29.754Z,1.63
2022-08-04T22:59:34.342Z,1.83
2022-08-04T23:04:37.349Z,1.77
2022-08-04T23:09:51.105Z,2.30
2022-08-04T23:14:55.353Z,2.13
2022-08-04T23:19:59.325Z,2.00
2022-08-04T23:25:04.961Z,2.15
2022-08-04T23:30:08.845Z,2.15
2022-08-04T23:35:11.403Z,1.85
2022-08-04T23:40:33.641Z,2.07
2022-08-04T23:46:06.960Z,2.08
2022-08-04T23:51:07.646Z,2.30
2022-08-04T23:56:19.748Z,2.08
